Time;durP1;ratioP1;P1;durP2;ratioP2;P2;SDS_P1;SDS_P2;PMS_P1;PMS_P2;Temp;Humidity;BMP_temperature;BMP_pressure;BME280_temperature;BME280_humidity;BME280_pressure;Samples;Min_cycle;Max_cycle;Signal;HPM_P1;HPM_P2
2023/01/10 00:01:55;;;;;;;14.05;6.38;;;6.60;95.20;;;;;;5053683;28;21093;-72
2023/01/10 00:04:21;;;;;;;15.38;6.70;;;6.60;95.40;;;;;;5072132;28;20678;-72
2023/01/10 00:06:46;;;;;;;16.10;5.57;;;6.60;95.70;;;;;;5071736;28;20391;-73
2023/01/10 00:09:12;;;;;;;14.07;5.93;;;6.60;94.60;;;;;;5071666;28;20806;-72
2023/01/10 00:14:22;;;;;;;16.63;6.50;;;6.70;95.50;;;;;;5071658;28;20383;-72
2023/01/10 00:16:47;;;;;;;10.38;5.93;;;6.80;94.70;;;;;;5071551;28;20384;-73
2023/01/10 00:19:13;;;;;;;14.38;5.80;;;6.80;93.10;;;;;;5071462;28;20470;-72
2023/01/10 00:21:39;;;;;;;18.45;5.75;;;6.90;90.80;;;;;;5071219;28;20446;-72
2023/01/10 00:24:16;;;;;;;27.55;6.30;;;7.00;90.60;;;;;;5080553;28;20395;-72
2023/01/10 00:26:44;;;;;;;12.95;5.80;;;7.00;89.40;;;;;;5083109;28;20382;-72
2023/01/10 00:29:11;;;;;;;12.65;5.40;;;7.10;87.70;;;;;;5081608;28;20891;-73
2023/01/10 00:31:36;;;;;;;11.88;5.10;;;7.10;86.60;;;;;;5053803;28;20899;-72
2023/01/10 00:34:02;;;;;;;14.63;5.70;;;7.10;87.10;;;;;;5070916;28;20383;-71
2023/01/10 00:36:27;;;;;;;13.43;5.50;;;7.00;86.50;;;;;;5070920;28;20914;-71
2023/01/10 00:38:53;;;;;;;14.47;5.90;;;7.10;85.50;;;;;;5071417;28;20391;-73
2023/01/10 00:44:05;;;;;;;19.88;5.80;;;7.10;86.40;;;;;;5071103;28;20410;-73
2023/01/10 00:46:31;;;;;;;19.67;5.63;;;7.20;83.50;;;;;;5071294;28;20499;-73
2023/01/10 00:48:56;;;;;;;14.32;5.55;;;7.10;84.50;;;;;;5071054;28;20455;-72
2023/01/10 00:51:22;;;;;;;17.80;5.85;;;7.20;82.80;;;;;;5070234;28;20387;-72
2023/01/10 00:53:47;;;;;;;17.02;4.60;;;7.20;82.40;;;;;;5071033;28;20459;-72
2023/01/10 00:56:13;;;;;;;17.33;5.20;;;7.20;81.00;;;;;;5054031;28;20383;-72
2023/01/10 00:58:38;;;;;;;19.05;4.95;;;7.20;79.70;;;;;;5072743;28;20852;-73
2023/01/10 01:01:04;;;;;;;18.02;4.43;;;7.20;79.50;;;;;;5072036;28;20468;-73
2023/01/10 01:03:30;;;;;;;16.60;4.90;;;7.20;79.60;;;;;;5070991;28;20387;-72
2023/01/10 01:05:55;;;;;;;14.48;4.25;;;7.10;80.90;;;;;;5070761;28;20411;-72
2023/01/10 01:08:21;;;;;;;15.00;4.50;;;7.20;80.40;;;;;;5070821;28;20466;-72
2023/01/10 01:10:47;;;;;;;13.18;4.40;;;7.20;78.50;;;;;;5070123;28;20400;-73
2023/01/10 01:13:18;;;;;;;16.23;3.67;;;7.20;79.80;;;;;;5070360;28;20395;-73
2023/01/10 01:15:44;;;;;;;16.90;4.07;;;7.20;79.10;;;;;;5070873;28;20480;-74
2023/01/10 01:18:12;;;;;;;16.90;4.43;;;7.20;77.30;;;;;;5070433;28;20426;-72
2023/01/10 01:20:38;;;;;;;14.90;4.00;;;7.20;76.90;;;;;;5070428;28;20765;-72
2023/01/10 01:23:04;;;;;;;15.50;4.07;;;7.30;76.90;;;;;;5070290;28;20396;-73
2023/01/10 01:25:29;;;;;;;14.55;4.38;;;7.30;76.00;;;;;;5070416;28;20398;-72
2023/01/10 01:27:55;;;;;;;18.10;4.50;;;7.30;76.20;;;;;;5052504;28;20422;-72
2023/01/10 01:30:21;;;;;;;19.55;4.93;;;7.30;76.70;;;;;;5070161;28;20490;-73
2023/01/10 01:32:46;;;;;;;14.80;3.80;;;7.40;75.80;;;;;;5070042;28;20444;-73
2023/01/10 01:35:14;;;;;;;19.00;4.20;;;7.40;73.40;;;;;;5070143;28;20503;-73
2023/01/10 01:37:40;;;;;;;16.35;4.00;;;7.30;75.10;;;;;;5070375;28;20844;-73
2023/01/10 01:40:07;;;;;;;15.52;4.32;;;7.40;74.30;;;;;;5070308;28;20875;-73
2023/01/10 01:42:34;;;;;;;21.17;4.40;;;7.40;73.80;;;;;;5069932;28;20388;-73
2023/01/10 01:45:22;;;;;;;20.98;4.65;;;7.30;74.40;;;;;;5069878;28;20384;-73
2023/01/10 01:48:08;;;;;;;14.40;3.90;;;7.40;72.90;;;;;;5070251;28;20391;-73
2023/01/10 01:50:40;;;;;;;13.20;4.00;;;7.40;72.00;;;;;;5070121;28;20435;-73
2023/01/10 01:53:12;;;;;;;11.43;3.93;;;7.50;71.00;;;;;;5069596;28;20923;-72
2023/01/10 01:55:38;;;;;;;15.63;4.20;;;7.50;71.20;;;;;;5069624;28;20772;-72
2023/01/10 01:58:09;;;;;;;21.70;4.43;;;7.50;71.50;;;;;;5069744;28;20467;-72
2023/01/10 02:00:35;;;;;;;20.50;4.28;;;7.40;70.70;;;;;;5069827;28;20856;-73
2023/01/10 02:03:03;;;;;;;15.15;4.00;;;7.60;69.60;;;;;;5069552;28;20379;-73
2023/01/10 02:05:31;;;;;;;16.58;4.20;;;7.50;69.40;;;;;;5069882;28;20886;-73
2023/01/10 02:08:00;;;;;;;15.48;4.25;;;7.50;68.80;;;;;;5069805;28;20396;-73
2023/01/10 02:10:27;;;;;;;14.75;4.35;;;7.50;68.60;;;;;;5052192;28;20403;-73
2023/01/10 02:12:54;;;;;;;12.50;4.55;;;7.40;67.10;;;;;;5069820;28;20899;-73
2023/01/10 02:15:21;;;;;;;16.83;4.22;;;7.40;68.40;;;;;;5069862;28;20390;-72
2023/01/10 02:17:48;;;;;;;16.50;3.73;;;7.40;69.20;;;;;;5069944;28;20384;-72
2023/01/10 02:20:16;;;;;;;14.18;4.32;;;7.30;69.80;;;;;;5069643;28;20380;-72
2023/01/10 02:23:10;;;;;;;14.20;3.95;;;7.30;70.00;;;;;;5071672;28;20399;-71
2023/01/10 02:26:10;;;;;;;18.25;4.28;;;7.30;69.80;;;;;;5073190;28;20510;-72
2023/01/10 02:28:54;;;;;;;18.67;4.32;;;7.20;70.60;;;;;;5073335;28;20388;-71
2023/01/10 02:31:57;;;;;;;16.20;3.90;;;7.10;72.50;;;;;;5072826;28;20787;-72
2023/01/10 02:34:33;;;;;;;13.23;4.40;;;7.00;73.30;;;;;;5073126;28;20886;-72
2023/01/10 02:37:13;;;;;;;18.88;4.65;;;7.00;72.90;;;;;;5072998;28;20470;-71
2023/01/10 02:40:01;;;;;;;20.58;4.40;;;6.90;73.50;;;;;;5073533;28;20900;-72
2023/01/10 02:42:38;;;;;;;18.73;4.95;;;6.80;73.70;;;;;;5072865;28;20521;-72
2023/01/10 02:45:13;;;;;;;17.40;4.40;;;6.80;73.10;;;;;;5073042;28;20387;-72
2023/01/10 02:47:40;;;;;;;17.10;4.35;;;6.60;74.90;;;;;;5073110;28;20411;-72
2023/01/10 02:50:27;;;;;;;19.08;4.90;;;6.50;76.90;;;;;;5074224;28;20404;-71
2023/01/10 02:52:56;;;;;;;14.23;4.50;;;6.60;76.60;;;;;;5074407;28;20741;-73
2023/01/10 02:55:41;;;;;;;16.85;4.80;;;6.60;76.30;;;;;;5074045;28;20875;-73
2023/01/10 02:58:25;;;;;;;19.35;4.50;;;6.50;76.20;;;;;;5055035;28;20771;-73
2023/01/10 03:01:01;;;;;;;23.13;5.30;;;6.60;74.20;;;;;;5072883;28;20467;-72
2023/01/10 03:03:39;;;;;;;17.53;5.10;;;6.40;76.00;;;;;;5073211;28;20392;-73
2023/01/10 03:06:25;;;;;;;21.83;5.72;;;6.30;78.00;;;;;;5083418;28;20995;-72
2023/01/10 03:09:20;;;;;;;24.30;6.60;;;6.20;79.60;;;;;;5084320;28;20465;-73
2023/01/10 03:11:48;;;;;;;24.23;7.60;;;6.40;77.20;;;;;;5072606;28;20384;-74
2023/01/10 03:14:25;;;;;;;21.83;6.90;;;6.30;78.20;;;;;;5072354;28;20765;-71
2023/01/10 03:16:58;;;;;;;32.70;7.60;;;6.30;77.60;;;;;;5072282;28;20922;-72
2023/01/10 03:19:28;;;;;;;22.80;6.40;;;6.30;77.40;;;;;;5072272;28;20379;-73
2023/01/10 03:21:58;;;;;;;16.85;5.70;;;6.20;78.40;;;;;;5072702;28;20402;-72
2023/01/10 03:24:35;;;;;;;20.75;5.40;;;6.20;78.40;;;;;;5072357;28;20857;-72
2023/01/10 03:27:18;;;;;;;18.70;5.20;;;6.10;78.70;;;;;;5072325;28;20788;-72
2023/01/10 03:30:06;;;;;;;24.25;5.53;;;6.00;78.80;;;;;;5072244;28;20779;-72
2023/01/10 03:32:32;;;;;;;17.60;4.45;;;6.00;79.90;;;;;;5071338;28;20372;-73
2023/01/10 03:35:00;;;;;;;21.42;4.32;;;5.80;81.50;;;;;;5072038;28;20390;-73
2023/01/10 03:37:38;;;;;;;16.33;4.57;;;5.80;82.30;;;;;;5072081;28;20405;-73
2023/01/10 03:40:27;;;;;;;21.33;5.10;;;5.70;83.80;;;;;;5071853;28;20756;-73
2023/01/10 03:46:05;;;;;;;16.33;4.40;;;5.60;85.10;;;;;;5072434;28;20436;-73
2023/01/10 03:48:35;;;;;;;17.07;4.23;;;5.50;86.40;;;;;;5072016;28;20376;-73
2023/01/10 03:51:04;;;;;;;18.58;5.13;;;5.50;86.60;;;;;;5071934;28;20552;-73
2023/01/10 03:53:31;;;;;;;25.27;4.43;;;5.50;89.60;;;;;;5053796;28;20384;-73
2023/01/10 03:55:57;;;;;;;18.45;4.50;;;5.50;87.50;;;;;;5071619;28;20391;-73
2023/01/10 03:58:22;;;;;;;19.80;4.10;;;5.70;86.40;;;;;;5071451;28;20384;-72
2023/01/10 04:00:48;;;;;;;20.70;5.10;;;5.70;85.40;;;;;;5071503;28;20939;-72
2023/01/10 04:03:15;;;;;;;17.77;4.50;;;5.80;83.30;;;;;;5071695;28;20402;-72
2023/01/10 04:05:41;;;;;;;25.23;5.20;;;5.90;82.30;;;;;;5071843;28;20994;-72
2023/01/10 04:08:07;;;;;;;22.00;4.90;;;6.00;80.60;;;;;;5071670;28;20421;-71
2023/01/10 04:10:32;;;;;;;24.98;4.90;;;6.10;79.90;;;;;;5071531;28;20900;-73
2023/01/10 04:13:00;;;;;;;17.55;4.60;;;6.20;78.70;;;;;;5071011;28;20380;-73
2023/01/10 04:15:26;;;;;;;14.40;4.23;;;6.30;76.70;;;;;;5071561;28;20457;-73
2023/01/10 04:17:51;;;;;;;13.88;4.22;;;6.40;75.30;;;;;;5071473;28;20841;-73
2023/01/10 04:20:17;;;;;;;17.23;4.70;;;6.40;73.30;;;;;;5071038;28;20394;-73
2023/01/10 04:22:45;;;;;;;24.50;4.90;;;6.50;72.70;;;;;;5070793;28;20482;-73
2023/01/10 04:25:10;;;;;;;21.05;4.68;;;6.50;71.10;;;;;;5071342;28;20384;-72
2023/01/10 04:27:36;;;;;;;21.90;4.10;;;6.50;70.00;;;;;;5071307;28;20472;-72
2023/01/10 04:30:02;;;;;;;18.60;4.93;;;6.40;71.00;;;;;;5071014;28;20888;-72
2023/01/10 04:32:28;;;;;;;16.33;5.45;;;6.40;71.50;;;;;;5070723;28;20403;-73
2023/01/10 04:34:53;;;;;;;20.97;5.73;;;6.30;72.10;;;;;;5070999;28;20384;-73
2023/01/10 04:37:19;;;;;;;20.87;5.77;;;6.10;75.30;;;;;;5071135;28;20476;-73
2023/01/10 04:39:44;;;;;;;24.58;5.53;;;6.10;75.30;;;;;;5071159;28;20375;-73
2023/01/10 04:42:10;;;;;;;19.37;4.90;;;6.20;74.60;;;;;;5070914;28;20442;-73
2023/01/10 04:44:36;;;;;;;21.10;4.75;;;6.30;75.20;;;;;;5070901;28;20958;-72
2023/01/10 04:47:02;;;;;;;15.50;4.90;;;6.40;72.00;;;;;;5053544;28;20514;-72
2023/01/10 04:49:27;;;;;;;18.53;5.27;;;6.40;72.20;;;;;;5071538;28;20478;-72
2023/01/10 04:51:53;;;;;;;13.83;4.60;;;6.50;72.40;;;;;;5072153;28;20391;-72
2023/01/10 04:54:22;;;;;;;21.77;5.20;;;6.40;72.00;;;;;;5071190;28;20380;-72
2023/01/10 04:56:48;;;;;;;22.73;5.32;;;6.50;71.70;;;;;;5070665;28;20767;-72
2023/01/10 04:59:14;;;;;;;28.48;5.50;;;6.50;71.30;;;;;;5070599;28;20388;-72
2023/01/10 05:01:39;;;;;;;22.48;4.88;;;6.50;71.60;;;;;;5052302;28;20438;-72
2023/01/10 05:04:06;;;;;;;17.40;5.32;;;6.60;70.20;;;;;;5070663;28;20391;-72
2023/01/10 05:06:32;;;;;;;18.53;5.30;;;6.50;71.60;;;;;;5070979;28;20936;-72
2023/01/10 05:08:57;;;;;;;22.33;5.90;;;6.60;72.60;;;;;;5070785;28;20908;-72
2023/01/10 05:11:23;;;;;;;16.27;4.60;;;6.60;72.00;;;;;;5070536;28;20490;-72
2023/01/10 05:13:49;;;;;;;18.47;5.40;;;6.50;72.60;;;;;;5070708;28;20532;-72
2023/01/10 05:16:15;;;;;;;25.55;5.80;;;6.50;73.00;;;;;;5070518;28;20446;-72
2023/01/10 05:18:41;;;;;;;25.23;5.60;;;6.50;72.50;;;;;;5070993;28;20757;-72
2023/01/10 05:21:09;;;;;;;28.58;6.72;;;6.50;72.80;;;;;;5070271;28;20388;-72
2023/01/10 05:23:35;;;;;;;23.77;7.18;;;6.40;73.40;;;;;;5070574;28;20792;-74
2023/01/10 05:26:09;;;;;;;24.30;6.28;;;6.40;73.20;;;;;;5069990;28;20832;-72
2023/01/10 05:28:34;;;;;;;25.00;6.50;;;6.30;74.90;;;;;;5070030;28;20463;-72
2023/01/10 05:31:00;;;;;;;31.02;6.10;;;6.20;75.80;;;;;;5069920;28;20970;-72
2023/01/10 05:33:25;;;;;;;25.37;5.57;;;6.10;77.00;;;;;;5070411;28;20946;-72
2023/01/10 05:35:51;;;;;;;28.70;6.20;;;6.10;77.60;;;;;;5070913;28;20890;-73
2023/01/10 05:38:16;;;;;;;26.00;5.50;;;6.00;77.10;;;;;;5070259;28;20380;-72
2023/01/10 05:40:42;;;;;;;22.20;5.20;;;6.00;77.70;;;;;;5070689;28;20379;-72
2023/01/10 05:43:07;;;;;;;20.07;4.83;;;5.90;78.10;;;;;;5071580;28;20383;-72
2023/01/10 05:45:33;;;;;;;22.10;5.13;;;5.90;79.10;;;;;;5075781;28;20718;-72
2023/01/10 05:47:59;;;;;;;18.77;4.63;;;5.80;80.10;;;;;;5077443;28;20376;-72
2023/01/10 05:50:24;;;;;;;21.73;4.70;;;5.80;80.90;;;;;;5072936;28;20423;-72
2023/01/10 05:52:50;;;;;;;21.87;5.00;;;5.80;81.10;;;;;;5071847;28;20745;-73
2023/01/10 05:55:15;;;;;;;24.20;4.70;;;5.70;81.60;;;;;;5072084;28;20462;-72
2023/01/10 05:57:41;;;;;;;26.92;5.28;;;5.70;81.30;;;;;;5058928;28;20383;-72
2023/01/10 06:00:07;;;;;;;31.52;5.63;;;5.70;80.80;;;;;;5076652;28;20380;-72
2023/01/10 06:02:33;;;;;;;27.10;4.97;;;5.60;81.90;;;;;;5075620;28;20425;-73
2023/01/10 06:04:58;;;;;;;28.03;5.33;;;5.60;83.70;;;;;;5075587;28;20383;-72
2023/01/10 06:07:24;;;;;;;30.40;5.70;;;5.60;82.30;;;;;;5074790;28;20391;-73
2023/01/10 06:09:50;;;;;;;24.13;5.35;;;5.50;82.70;;;;;;5074264;28;20506;-72
2023/01/10 06:12:17;;;;;;;25.83;4.57;;;5.60;82.00;;;;;;5074150;28;20787;-73
2023/01/10 06:14:43;;;;;;;32.40;5.25;;;5.50;82.90;;;;;;5074114;28;20733;-73
2023/01/10 06:17:09;;;;;;;29.45;5.35;;;5.50;84.00;;;;;;5073930;28;20432;-73
2023/01/10 06:19:35;;;;;;;30.88;5.32;;;5.60;83.50;;;;;;5074377;28;20386;-73
2023/01/10 06:22:02;;;;;;;24.70;4.90;;;5.80;80.90;;;;;;5056425;28;20403;-73
2023/01/10 06:24:27;;;;;;;23.80;4.90;;;5.90;80.50;;;;;;5074642;28;20721;-74
2023/01/10 06:26:53;;;;;;;28.38;5.57;;;6.00;78.70;;;;;;5055973;28;20391;-74
2023/01/10 06:29:18;;;;;;;29.38;5.85;;;6.10;77.60;;;;;;5073847;28;20490;-73
2023/01/10 06:31:44;;;;;;;28.27;5.18;;;6.20;75.90;;;;;;5073559;28;20408;-73
2023/01/10 06:34:09;;;;;;;27.05;5.50;;;6.20;75.30;;;;;;5073293;28;20387;-73
2023/01/10 06:36:35;;;;;;;21.75;5.30;;;6.30;74.30;;;;;;5072951;28;20390;-73
2023/01/10 06:39:00;;;;;;;20.63;5.40;;;6.40;73.60;;;;;;5072578;28;20430;-70
2023/01/10 06:41:26;;;;;;;33.37;5.47;;;6.40;72.40;;;;;;5072381;28;20413;-73
2023/01/10 06:43:52;;;;;;;22.60;5.33;;;6.40;72.60;;;;;;5072617;28;20392;-72
2023/01/10 06:46:18;;;;;;;27.77;6.07;;;6.40;72.50;;;;;;5072371;28;20419;-73
2023/01/10 06:48:44;;;;;;;30.10;6.00;;;6.40;72.30;;;;;;5072632;28;20529;-73
2023/01/10 06:51:12;;;;;;;20.73;5.60;;;6.50;70.60;;;;;;5072896;28;20404;-73
2023/01/10 06:53:37;;;;;;;30.02;5.93;;;6.50;70.50;;;;;;5073236;28;20938;-74
2023/01/10 06:56:04;;;;;;;28.27;5.40;;;6.60;69.70;;;;;;5073413;28;20387;-73
2023/01/10 06:58:31;;;;;;;29.05;5.40;;;6.60;68.90;;;;;;5073347;28;20743;-72
2023/01/10 07:00:56;;;;;;;24.38;5.32;;;6.60;69.20;;;;;;5072696;28;20387;-72
2023/01/10 07:03:22;;;;;;;29.17;5.73;;;6.50;69.70;;;;;;5072451;28;20383;-73
2023/01/10 07:05:48;;;;;;;27.13;5.80;;;6.50;69.90;;;;;;5070957;28;20398;-73
2023/01/10 07:08:13;;;;;;;28.13;5.90;;;6.50;69.90;;;;;;5070531;28;20395;-72
2023/01/10 07:10:40;;;;;;;22.58;5.60;;;6.60;68.70;;;;;;5072268;28;20485;-72
2023/01/10 07:13:06;;;;;;;33.28;6.32;;;6.70;67.90;;;;;;5071849;28;20739;-73
2023/01/10 07:15:32;;;;;;;39.20;6.03;;;6.60;68.60;;;;;;5072108;28;20462;-72
2023/01/10 07:17:58;;;;;;;27.10;5.93;;;6.60;69.20;;;;;;5071506;28;20483;-73
2023/01/10 07:20:24;;;;;;;37.17;5.68;;;6.60;69.60;;;;;;5072074;28;20554;-73
2023/01/10 07:22:59;;;;;;;32.05;6.32;;;6.70;69.00;;;;;;5070433;28;20457;-71
2023/01/10 07:25:26;;;;;;;32.25;6.63;;;6.60;68.50;;;;;;5072009;28;20746;-72
2023/01/10 07:27:54;;;;;;;25.75;5.60;;;6.60;69.80;;;;;;5072378;28;20973;-73
2023/01/10 07:30:20;;;;;;;25.83;5.20;;;6.50;70.30;;;;;;5072126;28;20415;-73
2023/01/10 07:32:51;;;;;;;21.50;5.10;;;6.60;69.80;;;;;;5063959;28;21037;-73
2023/01/10 07:35:16;;;;;;;27.73;6.60;;;6.60;69.30;;;;;;5069887;28;20445;-73
2023/01/10 07:37:42;;;;;;;31.87;5.83;;;6.60;68.90;;;;;;5059689;28;20398;-73
2023/01/10 07:40:08;;;;;;;26.63;6.27;;;6.60;68.10;;;;;;5049071;28;20722;-73
2023/01/10 07:42:34;;;;;;;25.90;6.32;;;6.50;69.60;;;;;;5064394;28;20882;-73
2023/01/10 07:44:59;;;;;;;31.85;7.00;;;6.50;70.20;;;;;;5069022;28;20399;-73
2023/01/10 07:47:27;;;;;;;35.07;6.60;;;6.50;69.70;;;;;;5069194;28;20468;-72
2023/01/10 07:49:52;;;;;;;34.92;5.88;;;6.40;70.10;;;;;;5057710;28;20405;-72
2023/01/10 07:52:18;;;;;;;32.47;5.93;;;6.30;71.30;;;;;;5049929;28;20767;-73
2023/01/10 07:54:43;;;;;;;34.50;7.70;;;6.20;71.40;;;;;;5069955;28;20383;-73
2023/01/10 07:57:09;;;;;;;28.58;5.45;;;6.20;72.40;;;;;;5069574;28;20384;-72
2023/01/10 07:59:34;;;;;;;37.13;6.43;;;6.10;73.40;;;;;;5069467;28;20383;-72
2023/01/10 08:02:00;;;;;;;31.08;6.50;;;6.00;74.20;;;;;;5069263;28;20903;-73
2023/01/10 08:04:25;;;;;;;32.97;6.05;;;5.90;75.90;;;;;;5069505;28;20891;-72
2023/01/10 08:06:53;;;;;;;28.00;5.40;;;5.90;76.60;;;;;;5069814;28;20383;-74
2023/01/10 08:09:19;;;;;;;34.80;6.32;;;5.90;76.70;;;;;;5069103;28;20883;-71
2023/01/10 08:11:44;;;;;;;33.60;6.40;;;5.80;77.60;;;;;;5069092;28;20407;-72
2023/01/10 08:14:10;;;;;;;42.43;6.63;;;5.70;78.90;;;;;;5068829;28;20725;-72
2023/01/10 08:16:35;;;;;;;29.83;5.83;;;5.70;79.30;;;;;;5051318;28;20395;-73
2023/01/10 08:19:01;;;;;;;33.13;6.50;;;5.80;79.00;;;;;;5067603;28;20407;-72
2023/01/10 08:21:27;;;;;;;37.80;6.47;;;5.80;78.50;;;;;;5069365;28;20903;-73
2023/01/10 08:23:53;;;;;;;34.47;5.97;;;5.70;79.20;;;;;;5052010;28;20395;-72
2023/01/10 08:26:19;;;;;;;40.17;6.32;;;5.70;80.50;;;;;;5066206;28;20465;-73
2023/01/10 08:28:45;;;;;;;28.43;6.40;;;5.70;79.70;;;;;;5068183;28;20892;-73
2023/01/10 08:31:10;;;;;;;25.77;6.50;;;5.70;80.80;;;;;;5069065;28;20741;-73
2023/01/10 08:33:37;;;;;;;38.97;6.10;;;5.80;80.20;;;;;;5069168;28;20453;-73
2023/01/10 08:36:03;;;;;;;35.85;6.65;;;5.90;77.50;;;;;;5068630;28;20395;-73
2023/01/10 08:38:29;;;;;;;37.00;6.30;;;5.90;78.30;;;;;;5081029;28;20400;-72
2023/01/10 08:40:57;;;;;;;32.77;6.80;;;6.00;75.80;;;;;;5086207;28;20478;-73
2023/01/10 08:43:23;;;;;;;30.27;6.55;;;5.90;75.90;;;;;;5071884;28;20494;-73
2023/01/10 08:45:49;;;;;;;33.50;5.70;;;6.00;76.40;;;;;;5072928;28;20426;-74
2023/01/10 08:48:15;;;;;;;31.02;6.93;;;6.00;75.60;;;;;;5069251;28;20393;-74
2023/01/10 08:50:40;;;;;;;30.00;6.27;;;6.00;75.00;;;;;;5066675;28;20407;-74
2023/01/10 08:53:06;;;;;;;36.73;7.07;;;6.10;74.90;;;;;;5068377;28;20460;-74
2023/01/10 08:55:34;;;;;;;35.30;6.60;;;6.10;75.40;;;;;;5061764;28;20488;-74
2023/01/10 08:58:00;;;;;;;31.90;6.38;;;6.10;74.70;;;;;;5068722;28;20418;-73
2023/01/10 09:00:27;;;;;;;32.92;6.32;;;6.10;74.20;;;;;;5069058;28;20384;-73
2023/01/10 09:02:52;;;;;;;39.17;6.83;;;6.10;73.20;;;;;;5068588;28;20853;-74
2023/01/10 09:05:18;;;;;;;32.70;5.93;;;6.20;72.80;;;;;;5050419;28;20446;-74
2023/01/10 09:07:45;;;;;;;32.47;6.15;;;6.30;70.50;;;;;;5068162;28;20415;-74
2023/01/10 09:10:11;;;;;;;25.40;5.45;;;6.30;71.10;;;;;;5068638;28;20419;-74
2023/01/10 09:12:55;;;;;;;33.03;5.90;;;6.40;70.60;;;;;;5067792;28;20469;-74
2023/01/10 09:15:23;;;;;;;39.40;6.60;;;6.40;70.10;;;;;;5068103;28;20385;-74
2023/01/10 09:17:48;;;;;;;28.70;6.00;;;6.50;69.40;;;;;;5068407;28;20428;-74
2023/01/10 09:20:15;;;;;;;32.93;6.10;;;6.70;68.20;;;;;;5067535;28;20427;-74
2023/01/10 09:22:41;;;;;;;32.72;6.10;;;6.80;65.80;;;;;;5082021;23;20431;-71
2023/01/10 09:25:06;;;;;;;35.05;6.22;;;6.80;66.00;;;;;;5068285;28;20426;-71
2023/01/10 09:27:32;;;;;;;28.20;5.85;;;6.90;64.60;;;;;;5069044;28;20384;-70
2023/01/10 09:29:58;;;;;;;31.58;6.03;;;7.00;63.40;;;;;;5068945;28;20422;-72
2023/01/10 09:32:24;;;;;;;29.70;6.07;;;7.10;62.30;;;;;;5072253;28;20491;-72
2023/01/10 09:34:50;;;;;;;27.67;5.70;;;7.50;58.80;;;;;;5073741;28;20391;-71
2023/01/10 09:37:16;;;;;;;24.93;5.57;;;7.70;56.50;;;;;;5075659;28;20400;-72
2023/01/10 09:39:42;;;;;;;19.13;5.30;;;7.80;55.20;;;;;;5093563;28;20390;-71
2023/01/10 09:42:18;;;;;;;32.13;6.13;;;7.80;54.20;;;;;;5082742;28;20414;-71
2023/01/10 09:45:12;;;;;;;32.30;5.85;;;7.70;54.70;;;;;;5073276;28;20472;-73
2023/01/10 09:47:57;;;;;;;33.97;6.13;;;7.70;55.70;;;;;;5072927;28;20382;-72
2023/01/10 09:50:30;;;;;;;34.35;6.68;;;7.70;55.80;;;;;;5071098;28;20589;-73
2023/01/10 09:53:04;;;;;;;28.92;6.22;;;7.70;55.30;;;;;;5073374;28;20386;-74
2023/01/10 09:55:32;;;;;;;32.30;6.27;;;7.80;55.00;;;;;;5073644;28;20392;-75
2023/01/10 09:58:03;;;;;;;34.05;6.20;;;7.80;54.60;;;;;;5073276;28;20390;-73
2023/01/10 10:00:51;;;;;;;36.85;5.90;;;7.80;54.60;;;;;;5072890;28;20686;-73
2023/01/10 10:03:50;;;;;;;36.13;5.37;;;7.90;53.60;;;;;;5076179;28;20404;-73
2023/01/10 10:06:16;;;;;;;27.50;6.15;;;8.00;53.90;;;;;;5085266;28;20712;-73
2023/01/10 10:08:45;;;;;;;23.63;5.30;;;8.00;53.30;;;;;;5084602;28;20384;-73
2023/01/10 10:11:31;;;;;;;29.75;5.97;;;8.10;51.60;;;;;;5079698;28;20469;-74
2023/01/10 10:14:24;;;;;;;33.15;6.60;;;8.30;51.60;;;;;;5059144;28;20445;-73
2023/01/10 10:17:15;;;;;;;26.98;5.88;;;8.30;51.70;;;;;;5061993;28;20431;-73
2023/01/10 10:20:04;;;;;;;32.00;5.88;;;8.40;49.90;;;;;;5073148;28;20395;-73
2023/01/10 10:22:52;;;;;;;28.40;6.57;;;8.40;50.20;;;;;;5072325;28;20767;-72
2023/01/10 10:25:37;;;;;;;33.00;6.15;;;8.60;49.60;;;;;;5054283;28;20689;-73
2023/01/10 10:28:19;;;;;;;33.30;7.43;;;8.60;48.70;;;;;;5072159;28;20384;-73
2023/01/10 10:31:27;;;;;;;26.85;7.22;;;8.60;49.30;;;;;;5072839;28;20537;-72
2023/01/10 10:34:15;;;;;;;27.20;5.90;;;8.80;48.40;;;;;;5073020;28;20908;-71
2023/01/10 10:36:51;;;;;;;34.28;7.05;;;8.90;48.00;;;;;;5072580;28;20386;-73
2023/01/10 10:39:35;;;;;;;31.13;6.13;;;9.00;45.60;;;;;;5072517;28;20406;-71
2023/01/10 10:42:05;;;;;;;32.58;6.93;;;9.10;45.00;;;;;;5070372;28;20372;-72
2023/01/10 10:44:55;;;;;;;32.67;7.15;;;9.10;45.40;;;;;;5053021;28;20449;-73
2023/01/10 10:47:23;;;;;;;32.95;6.53;;;9.10;46.20;;;;;;5072717;28;20402;-73
2023/01/10 10:50:17;;;;;;;32.83;5.70;;;9.20;44.80;;;;;;5070428;28;21044;-72
2023/01/10 10:52:43;;;;;;;33.60;6.38;;;9.40;43.30;;;;;;5072566;28;20379;-75
2023/01/10 10:55:27;;;;;;;34.08;7.60;;;9.40;43.00;;;;;;5073063;28;20403;-72
2023/01/10 10:57:54;;;;;;;29.85;6.03;;;9.30;44.10;;;;;;5071935;28;20928;-72
2023/01/10 11:00:21;;;;;;;31.75;5.60;;;9.50;42.20;;;;;;5072033;28;20390;-73
2023/01/10 11:02:54;;;;;;;24.80;5.68;;;9.50;41.20;;;;;;5054533;28;20890;-72
2023/01/10 11:05:29;;;;;;;24.30;5.45;;;9.50;42.00;;;;;;5072825;28;20395;-73
2023/01/10 11:08:00;;;;;;;24.27;5.97;;;9.60;42.60;;;;;;5083688;28;20418;-74
2023/01/10 11:10:35;;;;;;;23.63;4.90;;;9.60;42.80;;;;;;5055216;28;20414;-72
2023/01/10 11:13:11;;;;;;;25.47;5.53;;;9.60;41.40;;;;;;5071204;28;20441;-73
2023/01/10 11:15:42;;;;;;;28.85;7.10;;;9.60;42.20;;;;;;5074836;28;20415;-73
2023/01/10 11:18:15;;;;;;;33.33;6.60;;;9.80;41.30;;;;;;5087703;28;20376;-75
2023/01/10 11:20:56;;;;;;;26.65;5.70;;;9.70;41.20;;;;;;5087659;28;20419;-72
2023/01/10 11:23:26;;;;;;;29.33;7.10;;;9.80;40.50;;;;;;5075780;28;20399;-72
2023/01/10 11:25:52;;;;;;;28.38;6.82;;;9.90;40.20;;;;;;5072351;28;20930;-73
2023/01/10 11:28:23;;;;;;;27.00;5.72;;;9.90;40.00;;;;;;5067185;28;20405;-74
2023/01/10 11:30:49;;;;;;;32.72;6.20;;;10.00;38.70;;;;;;5071554;28;20403;-74
2023/01/10 11:33:22;;;;;;;28.77;6.17;;;10.00;38.80;;;;;;5072350;28;20888;-73
2023/01/10 11:36:04;;;;;;;26.57;5.20;;;10.00;39.30;;;;;;5067107;28;20783;-73
2023/01/10 11:38:31;;;;;;;26.00;5.93;;;10.10;38.70;;;;;;5076974;28;20391;-71
2023/01/10 11:41:05;;;;;;;29.10;6.32;;;10.20;38.40;;;;;;5085741;28;20825;-74
2023/01/10 11:43:40;;;;;;;25.15;5.68;;;10.10;38.40;;;;;;5080634;28;20422;-73
2023/01/10 11:46:16;;;;;;;27.08;5.35;;;10.10;38.50;;;;;;5077953;28;20404;-74
2023/01/10 11:48:45;;;;;;;24.15;5.82;;;10.10;38.70;;;;;;5076975;28;20384;-73
2023/01/10 11:51:27;;;;;;;35.13;6.80;;;10.10;39.20;;;;;;5077257;28;20492;-73
2023/01/10 11:54:01;;;;;;;25.23;5.75;;;10.10;38.40;;;;;;5076551;28;20455;-72
2023/01/10 11:56:31;;;;;;;29.85;5.43;;;10.20;38.00;;;;;;5056287;28;20460;-73
2023/01/10 11:59:06;;;;;;;25.60;5.20;;;10.20;37.80;;;;;;5072377;28;20445;-73
2023/01/10 12:01:37;;;;;;;25.67;6.20;;;10.20;37.40;;;;;;5071667;28;20883;-72
2023/01/10 12:04:03;;;;;;;27.33;6.60;;;10.30;37.90;;;;;;5054202;28;20400;-74
2023/01/10 12:06:29;;;;;;;31.50;5.38;;;10.40;37.00;;;;;;5072634;28;20398;-72
2023/01/10 12:08:56;;;;;;;24.13;5.40;;;10.40;36.60;;;;;;5053682;28;20756;-73
2023/01/10 12:11:30;;;;;;;29.88;6.78;;;10.40;36.80;;;;;;5071408;28;20483;-72
2023/01/10 12:14:00;;;;;;;23.60;5.53;;;10.40;36.80;;;;;;5071781;28;20411;-72
2023/01/10 12:16:33;;;;;;;25.90;5.25;;;10.30;36.00;;;;;;5072093;28;20692;-71
2023/01/10 12:19:06;;;;;;;29.38;5.95;;;10.30;36.00;;;;;;5053538;28;20392;-71
2023/01/10 12:21:39;;;;;;;29.85;6.15;;;10.30;36.60;;;;;;5071451;28;20471;-72
2023/01/10 12:24:37;;;;;;;25.98;5.30;;;10.30;36.40;;;;;;5071441;28;20395;-72
2023/01/10 12:27:04;;;;;;;23.00;4.95;;;10.40;35.60;;;;;;5072537;28;20392;-71
2023/01/10 12:29:40;;;;;;;35.55;6.25;;;10.50;35.10;;;;;;5072131;28;20400;-73
2023/01/10 12:32:18;;;;;;;24.38;5.75;;;10.40;35.70;;;;;;5054059;28;20402;-74
2023/01/10 12:34:49;;;;;;;22.85;5.32;;;10.50;34.70;;;;;;5071791;28;20384;-73
2023/01/10 12:37:20;;;;;;;32.55;5.75;;;10.40;35.20;;;;;;5071940;28;20737;-74
2023/01/10 12:39:55;;;;;;;25.00;5.57;;;10.40;34.90;;;;;;5072352;28;20415;-73
2023/01/10 12:45:52;;;;;;;29.75;6.50;;;10.50;34.60;;;;;;5071486;28;20900;-72
2023/01/10 12:48:23;;;;;;;28.60;5.60;;;10.40;36.30;;;;;;5071958;28;20390;-75
2023/01/10 12:50:58;;;;;;;26.95;5.10;;;10.40;36.60;;;;;;5053163;28;20422;-75
2023/01/10 12:53:32;;;;;;;20.10;5.80;;;10.40;36.10;;;;;;5071741;28;20407;-74
2023/01/10 12:56:03;;;;;;;29.75;5.57;;;10.40;36.50;;;;;;5072284;28;20466;-74
2023/01/10 12:58:46;;;;;;;26.37;6.67;;;10.40;36.50;;;;;;5072200;28;20462;-73
2023/01/10 13:01:27;;;;;;;22.27;5.75;;;10.40;35.50;;;;;;5072045;28;20398;-73
2023/01/10 13:04:05;;;;;;;19.80;4.60;;;10.30;35.10;;;;;;5076095;28;20375;-75
2023/01/10 13:06:33;;;;;;;25.92;6.35;;;10.30;33.90;;;;;;5073586;28;20438;-75
2023/01/10 13:09:04;;;;;;;25.13;6.10;;;10.40;34.30;;;;;;5095811;28;20411;-74
2023/01/10 13:11:39;;;;;;;22.95;5.20;;;10.40;35.30;;;;;;5082506;28;20504;-74
2023/01/10 13:14:11;;;;;;;24.30;7.07;;;10.40;33.70;;;;;;5054090;28;20384;-76